sensor_id;sensor_type;location;lat;lon;timestamp;temperature;humidity
52731;DHT22;38624;53.242;6.974;2023-02-03T00:00:34;9.30;99.90
52731;DHT22;38624;53.242;6.974;2023-02-03T00:02:59;9.00;99.90
52731;DHT22;38624;53.242;6.974;2023-02-03T00:05:25;9.40;99.90
52731;DHT22;38624;53.242;6.974;2023-02-03T00:07:50;9.30;99.90
52731;DHT22;38624;53.242;6.974;2023-02-03T00:10:16;9.30;99.90
52731;DHT22;38624;53.242;6.974;2023-02-03T00:12:49;9.20;99.90
52731;DHT22;38624;53.242;6.974;2023-02-03T00:15:15;9.40;99.90
52731;DHT22;38624;53.242;6.974;2023-02-03T00:17:41;9.30;99.90
52731;DHT22;38624;53.242;6.974;2023-02-03T00:20:07;9.30;99.90
52731;DHT22;38624;53.242;6.974;2023-02-03T00:22:32;9.30;99.90
52731;DHT22;38624;53.242;6.974;2023-02-03T00:24:58;9.30;99.90
52731;DHT22;38624;53.242;6.974;2023-02-03T00:27:24;9.40;99.90
52731;DHT22;38624;53.242;6.974;2023-02-03T00:29:50;9.50;99.90
52731;DHT22;38624;53.242;6.974;2023-02-03T00:32:15;9.30;99.90
52731;DHT22;38624;53.242;6.974;2023-02-03T00:34:41;9.30;99.90
52731;DHT22;38624;53.242;6.974;2023-02-03T00:37:06;9.20;99.90
52731;DHT22;38624;53.242;6.974;2023-02-03T00:39:34;9.20;99.90
52731;DHT22;38624;53.242;6.974;2023-02-03T00:42:00;9.10;99.90
52731;DHT22;38624;53.242;6.974;2023-02-03T00:44:25;9.10;99.90
52731;DHT22;38624;53.242;6.974;2023-02-03T00:46:51;9.20;99.90
52731;DHT22;38624;53.242;6.974;2023-02-03T00:49:16;9.20;99.90
52731;DHT22;38624;53.242;6.974;2023-02-03T00:51:42;9.30;99.90
52731;DHT22;38624;53.242;6.974;2023-02-03T00:54:08;9.40;99.90
52731;DHT22;38624;53.242;6.974;2023-02-03T00:56:33;9.30;99.90
52731;DHT22;38624;53.242;6.974;2023-02-03T00:58:59;9.20;99.90
52731;DHT22;38624;53.242;6.974;2023-02-03T01:01:24;9.20;99.90
52731;DHT22;38624;53.242;6.974;2023-02-03T01:03:53;9.40;99.90
52731;DHT22;38624;53.242;6.974;2023-02-03T01:06:19;9.40;99.90
52731;DHT22;38624;53.242;6.974;2023-02-03T01:08:46;9.20;99.90
52731;DHT22;38624;53.242;6.974;2023-02-03T01:11:13;9.30;99.90
52731;DHT22;38624;53.242;6.974;2023-02-03T01:13:38;9.40;99.90
52731;DHT22;38624;53.242;6.974;2023-02-03T01:16:08;9.40;99.90
52731;DHT22;38624;53.242;6.974;2023-02-03T01:18:34;9.50;99.90
52731;DHT22;38624;53.242;6.974;2023-02-03T01:21:10;9.50;99.90
52731;DHT22;38624;53.242;6.974;2023-02-03T01:23:36;9.30;99.90
52731;DHT22;38624;53.242;6.974;2023-02-03T01:26:03;9.30;99.90
52731;DHT22;38624;53.242;6.974;2023-02-03T01:28:28;9.30;99.90
52731;DHT22;38624;53.242;6.974;2023-02-03T01:30:54;9.30;99.90
52731;DHT22;38624;53.242;6.974;2023-02-03T01:33:19;9.40;99.90
52731;DHT22;38624;53.242;6.974;2023-02-03T01:35:45;9.40;99.90
52731;DHT22;38624;53.242;6.974;2023-02-03T01:38:11;9.40;99.90
52731;DHT22;38624;53.242;6.974;2023-02-03T01:40:43;9.40;99.90
52731;DHT22;38624;53.242;6.974;2023-02-03T01:43:26;9.30;99.90
52731;DHT22;38624;53.242;6.974;2023-02-03T01:45:52;9.40;99.90
52731;DHT22;38624;53.242;6.974;2023-02-03T01:48:17;9.30;99.90
52731;DHT22;38624;53.242;6.974;2023-02-03T01:50:43;9.30;99.90
52731;DHT22;38624;53.242;6.974;2023-02-03T01:53:10;9.40;99.90
52731;DHT22;38624;53.242;6.974;2023-02-03T01:55:37;9.40;99.90
52731;DHT22;38624;53.242;6.974;2023-02-03T02:00:30;9.40;99.90
52731;DHT22;38624;53.242;6.974;2023-02-03T02:02:56;9.40;99.90
52731;DHT22;38624;53.242;6.974;2023-02-03T02:05:30;9.30;99.90
52731;DHT22;38624;53.242;6.974;2023-02-03T02:07:57;9.40;99.90
52731;DHT22;38624;53.242;6.974;2023-02-03T02:10:24;9.30;99.90
52731;DHT22;38624;53.242;6.974;2023-02-03T02:12:49;9.50;99.90
52731;DHT22;38624;53.242;6.974;2023-02-03T02:15:15;9.40;99.90
52731;DHT22;38624;53.242;6.974;2023-02-03T02:22:56;9.40;99.90
52731;DHT22;38624;53.242;6.974;2023-02-03T02:39:05;9.60;99.90
52731;DHT22;38624;53.242;6.974;2023-02-03T02:41:38;9.50;99.90
52731;DHT22;38624;53.242;6.974;2023-02-03T02:44:14;9.50;99.90
52731;DHT22;38624;53.242;6.974;2023-02-03T02:46:45;10.40;99.90
52731;DHT22;38624;53.242;6.974;2023-02-03T02:49:13;9.50;99.90
52731;DHT22;38624;53.242;6.974;2023-02-03T02:51:40;9.50;99.90
52731;DHT22;38624;53.242;6.974;2023-02-03T02:54:09;9.50;99.90
52731;DHT22;38624;53.242;6.974;2023-02-03T02:56:37;9.40;99.90
52731;DHT22;38624;53.242;6.974;2023-02-03T02:59:03;9.40;99.90
52731;DHT22;38624;53.242;6.974;2023-02-03T03:01:30;9.50;99.90
52731;DHT22;38624;53.242;6.974;2023-02-03T03:03:56;9.60;99.90
52731;DHT22;38624;53.242;6.974;2023-02-03T03:06:30;9.50;99.90
52731;DHT22;38624;53.242;6.974;2023-02-03T03:11:30;9.30;99.90
52731;DHT22;38624;53.242;6.974;2023-02-03T03:13:57;9.30;99.90
52731;DHT22;38624;53.242;6.974;2023-02-03T03:16:24;9.40;99.90
52731;DHT22;38624;53.242;6.974;2023-02-03T03:19:04;9.50;99.90
52731;DHT22;38624;53.242;6.974;2023-02-03T03:21:33;9.40;99.90
52731;DHT22;38624;53.242;6.974;2023-02-03T03:24:01;9.60;99.90
52731;DHT22;38624;53.242;6.974;2023-02-03T03:28:59;9.50;99.90
52731;DHT22;38624;53.242;6.974;2023-02-03T03:31:27;9.50;99.90
52731;DHT22;38624;53.242;6.974;2023-02-03T03:33:53;9.40;99.90
52731;DHT22;38624;53.242;6.974;2023-02-03T03:36:29;9.30;99.90
52731;DHT22;38624;53.242;6.974;2023-02-03T03:38:58;9.30;99.90
52731;DHT22;38624;53.242;6.974;2023-02-03T03:43:55;9.40;99.90
52731;DHT22;38624;53.242;6.974;2023-02-03T03:46:27;9.50;99.90
52731;DHT22;38624;53.242;6.974;2023-02-03T03:48:58;9.40;99.90
52731;DHT22;38624;53.242;6.974;2023-02-03T03:53:54;9.40;99.90
52731;DHT22;38624;53.242;6.974;2023-02-03T03:56:23;9.30;99.90
52731;DHT22;38624;53.242;6.974;2023-02-03T03:58:50;9.50;99.90
52731;DHT22;38624;53.242;6.974;2023-02-03T04:01:17;9.30;99.90
52731;DHT22;38624;53.242;6.974;2023-02-03T04:03:44;9.50;99.90
52731;DHT22;38624;53.242;6.974;2023-02-03T04:06:11;9.40;99.90
52731;DHT22;38624;53.242;6.974;2023-02-03T04:08:36;9.30;99.90
52731;DHT22;38624;53.242;6.974;2023-02-03T04:11:03;9.50;99.90
52731;DHT22;38624;53.242;6.974;2023-02-03T04:13:29;9.40;99.90
52731;DHT22;38624;53.242;6.974;2023-02-03T04:15:55;9.40;99.90
52731;DHT22;38624;53.242;6.974;2023-02-03T04:18:20;9.30;99.90
52731;DHT22;38624;53.242;6.974;2023-02-03T04:20:46;9.30;99.90
52731;DHT22;38624;53.242;6.974;2023-02-03T04:23:11;9.40;99.90
52731;DHT22;38624;53.242;6.974;2023-02-03T04:25:37;9.40;99.90
52731;DHT22;38624;53.242;6.974;2023-02-03T04:28:02;9.50;99.90
52731;DHT22;38624;53.242;6.974;2023-02-03T04:30:28;9.40;99.90
52731;DHT22;38624;53.242;6.974;2023-02-03T04:32:54;9.50;99.90
52731;DHT22;38624;53.242;6.974;2023-02-03T04:35:19;9.50;99.90
52731;DHT22;38624;53.242;6.974;2023-02-03T04:37:45;9.60;99.90
52731;DHT22;38624;53.242;6.974;2023-02-03T04:40:11;9.40;99.90
52731;DHT22;38624;53.242;6.974;2023-02-03T04:42:37;9.40;99.90
52731;DHT22;38624;53.242;6.974;2023-02-03T04:45:06;9.50;99.90
52731;DHT22;38624;53.242;6.974;2023-02-03T04:47:32;9.50;99.90
52731;DHT22;38624;53.242;6.974;2023-02-03T04:49:57;9.60;99.90
52731;DHT22;38624;53.242;6.974;2023-02-03T04:52:23;9.60;99.90
52731;DHT22;38624;53.242;6.974;2023-02-03T04:54:49;9.60;99.90
52731;DHT22;38624;53.242;6.974;2023-02-03T04:57:14;9.60;99.90
52731;DHT22;38624;53.242;6.974;2023-02-03T04:59:40;9.60;99.90
52731;DHT22;38624;53.242;6.974;2023-02-03T05:02:05;9.40;99.90
52731;DHT22;38624;53.242;6.974;2023-02-03T05:04:32;9.60;99.90
52731;DHT22;38624;53.242;6.974;2023-02-03T05:06:58;9.50;99.90
52731;DHT22;38624;53.242;6.974;2023-02-03T05:09:24;9.50;99.90
52731;DHT22;38624;53.242;6.974;2023-02-03T05:11:50;9.50;99.90
52731;DHT22;38624;53.242;6.974;2023-02-03T05:14:15;9.60;99.90
52731;DHT22;38624;53.242;6.974;2023-02-03T05:16:41;9.50;99.90
52731;DHT22;38624;53.242;6.974;2023-02-03T05:19:07;9.60;99.90
52731;DHT22;38624;53.242;6.974;2023-02-03T05:21:33;9.70;99.90
52731;DHT22;38624;53.242;6.974;2023-02-03T05:23:58;9.70;99.90
52731;DHT22;38624;53.242;6.974;2023-02-03T05:26:24;9.50;99.90
52731;DHT22;38624;53.242;6.974;2023-02-03T05:28:50;9.60;99.90
52731;DHT22;38624;53.242;6.974;2023-02-03T05:31:16;9.70;99.90
52731;DHT22;38624;53.242;6.974;2023-02-03T05:33:41;9.70;99.90
52731;DHT22;38624;53.242;6.974;2023-02-03T05:36:07;9.70;99.90
52731;DHT22;38624;53.242;6.974;2023-02-03T05:38:33;9.70;99.90
52731;DHT22;38624;53.242;6.974;2023-02-03T05:40:58;9.60;99.90
52731;DHT22;38624;53.242;6.974;2023-02-03T05:43:43;9.60;99.90
52731;DHT22;38624;53.242;6.974;2023-02-03T05:46:08;9.70;99.90
52731;DHT22;38624;53.242;6.974;2023-02-03T05:48:34;9.70;99.90
52731;DHT22;38624;53.242;6.974;2023-02-03T05:50:59;9.50;99.90
52731;DHT22;38624;53.242;6.974;2023-02-03T05:53:25;9.40;99.90
52731;DHT22;38624;53.242;6.974;2023-02-03T05:55:51;9.40;99.90
52731;DHT22;38624;53.242;6.974;2023-02-03T05:58:17;9.60;99.90
52731;DHT22;38624;53.242;6.974;2023-02-03T06:00:43;9.60;99.90
52731;DHT22;38624;53.242;6.974;2023-02-03T06:03:08;9.60;99.90
52731;DHT22;38624;53.242;6.974;2023-02-03T06:05:34;9.50;99.90
52731;DHT22;38624;53.242;6.974;2023-02-03T06:08:02;9.70;99.90
52731;DHT22;38624;53.242;6.974;2023-02-03T06:10:27;9.70;99.90
52731;DHT22;38624;53.242;6.974;2023-02-03T06:12:53;9.60;99.90
52731;DHT22;38624;53.242;6.974;2023-02-03T06:15:18;9.60;99.90
52731;DHT22;38624;53.242;6.974;2023-02-03T06:17:45;9.60;99.90
52731;DHT22;38624;53.242;6.974;2023-02-03T06:20:12;9.50;99.90
52731;DHT22;38624;53.242;6.974;2023-02-03T06:22:38;9.50;99.90
52731;DHT22;38624;53.242;6.974;2023-02-03T06:25:03;9.60;99.90
52731;DHT22;38624;53.242;6.974;2023-02-03T06:27:29;9.60;99.90
52731;DHT22;38624;53.242;6.974;2023-02-03T06:29:54;9.60;99.90
52731;DHT22;38624;53.242;6.974;2023-02-03T06:32:20;9.60;99.90
52731;DHT22;38624;53.242;6.974;2023-02-03T06:34:46;9.70;99.90
52731;DHT22;38624;53.242;6.974;2023-02-03T06:37:11;9.70;99.90
52731;DHT22;38624;53.242;6.974;2023-02-03T06:39:37;9.60;99.90
52731;DHT22;38624;53.242;6.974;2023-02-03T06:42:02;9.70;99.90
52731;DHT22;38624;53.242;6.974;2023-02-03T06:44:28;8.40;99.90
52731;DHT22;38624;53.242;6.974;2023-02-03T06:46:54;9.80;99.90
52731;DHT22;38624;53.242;6.974;2023-02-03T06:49:20;9.80;99.90
52731;DHT22;38624;53.242;6.974;2023-02-03T06:51:46;9.70;99.90
52731;DHT22;38624;53.242;6.974;2023-02-03T06:54:12;9.80;99.90
52731;DHT22;38624;53.242;6.974;2023-02-03T06:56:38;9.70;99.90
52731;DHT22;38624;53.242;6.974;2023-02-03T06:59:03;9.70;99.90
52731;DHT22;38624;53.242;6.974;2023-02-03T07:01:29;9.70;99.90
52731;DHT22;38624;53.242;6.974;2023-02-03T07:03:56;9.50;99.90
52731;DHT22;38624;53.242;6.974;2023-02-03T07:06:23;9.70;99.90
52731;DHT22;38624;53.242;6.974;2023-02-03T07:08:53;9.60;99.90
52731;DHT22;38624;53.242;6.974;2023-02-03T07:11:19;9.50;99.90
52731;DHT22;38624;53.242;6.974;2023-02-03T07:13:45;9.70;99.90
52731;DHT22;38624;53.242;6.974;2023-02-03T07:16:11;9.70;99.90
52731;DHT22;38624;53.242;6.974;2023-02-03T07:18:36;9.60;99.90
52731;DHT22;38624;53.242;6.974;2023-02-03T07:21:03;9.50;99.90
52731;DHT22;38624;53.242;6.974;2023-02-03T07:23:28;9.50;99.90
52731;DHT22;38624;53.242;6.974;2023-02-03T07:25:57;9.50;99.90
52731;DHT22;38624;53.242;6.974;2023-02-03T07:28:23;9.50;99.90
52731;DHT22;38624;53.242;6.974;2023-02-03T07:30:48;9.50;99.90
52731;DHT22;38624;53.242;6.974;2023-02-03T07:33:14;9.60;99.90
52731;DHT22;38624;53.242;6.974;2023-02-03T07:35:40;9.80;99.90
52731;DHT22;38624;53.242;6.974;2023-02-03T07:38:05;9.80;99.90
52731;DHT22;38624;53.242;6.974;2023-02-03T07:40:31;9.70;99.90
52731;DHT22;38624;53.242;6.974;2023-02-03T07:42:56;9.80;99.90
52731;DHT22;38624;53.242;6.974;2023-02-03T07:45:22;9.70;99.90
52731;DHT22;38624;53.242;6.974;2023-02-03T07:47:49;9.60;99.90
52731;DHT22;38624;53.242;6.974;2023-02-03T07:50:14;9.60;99.90
52731;DHT22;38624;53.242;6.974;2023-02-03T07:52:40;9.70;99.90
52731;DHT22;38624;53.242;6.974;2023-02-03T07:55:06;9.60;99.90
52731;DHT22;38624;53.242;6.974;2023-02-03T07:57:31;9.60;99.90
52731;DHT22;38624;53.242;6.974;2023-02-03T07:59:57;9.60;99.90
52731;DHT22;38624;53.242;6.974;2023-02-03T08:02:23;9.70;99.90
52731;DHT22;38624;53.242;6.974;2023-02-03T08:04:48;9.60;99.90
52731;DHT22;38624;53.242;6.974;2023-02-03T08:07:14;9.60;99.90
52731;DHT22;38624;53.242;6.974;2023-02-03T08:09:39;9.60;99.90
52731;DHT22;38624;53.242;6.974;2023-02-03T08:12:05;9.50;99.90
52731;DHT22;38624;53.242;6.974;2023-02-03T08:14:30;9.40;99.90
52731;DHT22;38624;53.242;6.974;2023-02-03T08:16:56;9.30;99.90
52731;DHT22;38624;53.242;6.974;2023-02-03T08:19:22;9.50;99.90
52731;DHT22;38624;53.242;6.974;2023-02-03T08:21:47;9.50;99.90
52731;DHT22;38624;53.242;6.974;2023-02-03T08:24:13;9.60;99.90
52731;DHT22;38624;53.242;6.974;2023-02-03T08:26:38;9.60;99.90
52731;DHT22;38624;53.242;6.974;2023-02-03T08:29:04;9.60;99.90
52731;DHT22;38624;53.242;6.974;2023-02-03T08:31:29;9.60;99.90
52731;DHT22;38624;53.242;6.974;2023-02-03T08:33:55;9.70;99.90
52731;DHT22;38624;53.242;6.974;2023-02-03T08:36:21;9.60;99.90
52731;DHT22;38624;53.242;6.974;2023-02-03T08:38:47;9.50;99.90
52731;DHT22;38624;53.242;6.974;2023-02-03T08:41:14;9.50;99.90
52731;DHT22;38624;53.242;6.974;2023-02-03T08:43:40;9.60;99.90
52731;DHT22;38624;53.242;6.974;2023-02-03T08:46:07;9.70;99.90
52731;DHT22;38624;53.242;6.974;2023-02-03T08:48:33;9.70;99.90
52731;DHT22;38624;53.242;6.974;2023-02-03T08:50:59;9.60;99.90
52731;DHT22;38624;53.242;6.974;2023-02-03T08:53:24;9.80;99.90
52731;DHT22;38624;53.242;6.974;2023-02-03T08:55:50;9.70;99.90
52731;DHT22;38624;53.242;6.974;2023-02-03T08:58:15;9.70;99.90
52731;DHT22;38624;53.242;6.974;2023-02-03T09:00:41;9.50;99.90
52731;DHT22;38624;53.242;6.974;2023-02-03T09:03:07;9.60;99.90
52731;DHT22;38624;53.242;6.974;2023-02-03T09:05:33;9.80;99.90
52731;DHT22;38624;53.242;6.974;2023-02-03T09:07:58;9.70;99.90
52731;DHT22;38624;53.242;6.974;2023-02-03T09:10:24;9.70;99.90
52731;DHT22;38624;53.242;6.974;2023-02-03T09:12:49;9.70;99.90
52731;DHT22;38624;53.242;6.974;2023-02-03T09:15:15;9.60;99.90
52731;DHT22;38624;53.242;6.974;2023-02-03T09:17:41;9.50;99.90
52731;DHT22;38624;53.242;6.974;2023-02-03T09:20:06;9.70;99.90
52731;DHT22;38624;53.242;6.974;2023-02-03T09:22:33;9.70;99.90
52731;DHT22;38624;53.242;6.974;2023-02-03T09:24:58;9.80;99.90
52731;DHT22;38624;53.242;6.974;2023-02-03T09:27:24;9.70;99.90
52731;DHT22;38624;53.242;6.974;2023-02-03T09:29:50;9.80;99.90
52731;DHT22;38624;53.242;6.974;2023-02-03T09:32:15;9.90;99.90
52731;DHT22;38624;53.242;6.974;2023-02-03T09:34:41;9.90;99.90
52731;DHT22;38624;53.242;6.974;2023-02-03T09:37:07;9.90;99.90
52731;DHT22;38624;53.242;6.974;2023-02-03T09:39:32;9.90;99.90
52731;DHT22;38624;53.242;6.974;2023-02-03T09:44:40;10.00;99.90
52731;DHT22;38624;53.242;6.974;2023-02-03T09:47:11;10.00;99.90
52731;DHT22;38624;53.242;6.974;2023-02-03T09:49:40;10.00;99.90
52731;DHT22;38624;53.242;6.974;2023-02-03T09:52:11;10.20;99.90
52731;DHT22;38624;53.242;6.974;2023-02-03T09:54:40;10.10;99.90
52731;DHT22;38624;53.242;6.974;2023-02-03T09:57:12;10.10;99.90
52731;DHT22;38624;53.242;6.974;2023-02-03T09:59:38;10.10;99.90
52731;DHT22;38624;53.242;6.974;2023-02-03T10:04:51;10.10;99.90
52731;DHT22;38624;53.242;6.974;2023-02-03T10:07:20;10.20;99.90
52731;DHT22;38624;53.242;6.974;2023-02-03T10:09:59;10.20;99.90
52731;DHT22;38624;53.242;6.974;2023-02-03T10:17:54;10.10;99.90
52731;DHT22;38624;53.242;6.974;2023-02-03T10:20:22;10.10;99.90
52731;DHT22;38624;53.242;6.974;2023-02-03T10:22:51;10.20;99.90
52731;DHT22;38624;53.242;6.974;2023-02-03T10:25:19;10.20;99.90
52731;DHT22;38624;53.242;6.974;2023-02-03T10:27:49;10.40;99.90
52731;DHT22;38624;53.242;6.974;2023-02-03T10:30:20;10.50;99.90
52731;DHT22;38624;53.242;6.974;2023-02-03T10:32:48;10.60;99.90
52731;DHT22;38624;53.242;6.974;2023-02-03T10:35:14;10.70;99.90
52731;DHT22;38624;53.242;6.974;2023-02-03T10:37:43;10.70;99.90
52731;DHT22;38624;53.242;6.974;2023-02-03T10:40:13;10.60;99.90
52731;DHT22;38624;53.242;6.974;2023-02-03T10:42:40;10.60;99.90
52731;DHT22;38624;53.242;6.974;2023-02-03T10:45:25;10.80;99.90
52731;DHT22;38624;53.242;6.974;2023-02-03T10:47:52;10.80;99.90
52731;DHT22;38624;53.242;6.974;2023-02-03T10:50:20;10.90;99.90
52731;DHT22;38624;53.242;6.974;2023-02-03T10:52:46;11.10;99.90
52731;DHT22;38624;53.242;6.974;2023-02-03T10:57:50;11.10;99.90
52731;DHT22;38624;53.242;6.974;2023-02-03T11:00:23;11.10;99.90
52731;DHT22;38624;53.242;6.974;2023-02-03T11:02:56;11.00;99.90
52731;DHT22;38624;53.242;6.974;2023-02-03T11:05:23;11.00;99.90
52731;DHT22;38624;53.242;6.974;2023-02-03T11:07:50;11.10;99.90
52731;DHT22;38624;53.242;6.974;2023-02-03T11:10:27;11.20;99.90
52731;DHT22;38624;53.242;6.974;2023-02-03T11:13:38;11.00;99.90
52731;DHT22;38624;53.242;6.974;2023-02-03T11:15:51;11.10;99.90
52731;DHT22;38624;53.242;6.974;2023-02-03T11:20:51;11.20;99.90
52731;DHT22;38624;53.242;6.974;2023-02-03T11:23:17;11.20;99.90
52731;DHT22;38624;53.242;6.974;2023-02-03T11:25:44;12.10;99.90
52731;DHT22;38624;53.242;6.974;2023-02-03T11:28:10;11.10;99.90
52731;DHT22;38624;53.242;6.974;2023-02-03T11:30:36;11.20;99.90
52731;DHT22;38624;53.242;6.974;2023-02-03T11:33:04;11.50;99.90
52731;DHT22;38624;53.242;6.974;2023-02-03T11:35:40;11.50;99.90
52731;DHT22;38624;53.242;6.974;2023-02-03T11:38:30;11.60;99.90
52731;DHT22;38624;53.242;6.974;2023-02-03T11:40:59;12.00;99.90
52731;DHT22;38624;53.242;6.974;2023-02-03T11:43:28;12.10;99.90
52731;DHT22;38624;53.242;6.974;2023-02-03T11:45:58;11.90;99.90
52731;DHT22;38624;53.242;6.974;2023-02-03T11:48:35;12.10;99.90
52731;DHT22;38624;53.242;6.974;2023-02-03T11:53:34;11.90;99.90
52731;DHT22;38624;53.242;6.974;2023-02-03T12:26:53;10.80;99.90
52731;DHT22;38624;53.242;6.974;2023-02-03T12:29:21;10.80;99.90
52731;DHT22;38624;53.242;6.974;2023-02-03T12:32:03;10.90;99.90
52731;DHT22;38624;53.242;6.974;2023-02-03T12:34:37;10.90;99.90
52731;DHT22;38624;53.242;6.974;2023-02-03T12:39:33;10.70;99.90
52731;DHT22;38624;53.242;6.974;2023-02-03T12:44:51;10.80;99.90
52731;DHT22;38624;53.242;6.974;2023-02-03T12:48:01;10.90;99.90
52731;DHT22;38624;53.242;6.974;2023-02-03T12:50:13;11.20;99.90
52731;DHT22;38624;53.242;6.974;2023-02-03T12:52:41;11.70;99.90
52731;DHT22;38624;53.242;6.974;2023-02-03T12:57:59;12.20;99.90
52731;DHT22;38624;53.242;6.974;2023-02-03T13:00:29;12.30;99.90
52731;DHT22;38624;53.242;6.974;2023-02-03T13:03:05;12.60;99.90
52731;DHT22;38624;53.242;6.974;2023-02-03T13:05:44;13.10;99.90
52731;DHT22;38624;53.242;6.974;2023-02-03T13:10:44;13.20;99.90
52731;DHT22;38624;53.242;6.974;2023-02-03T13:13:13;12.80;99.90
52731;DHT22;38624;53.242;6.974;2023-02-03T13:15:44;12.70;99.90
52731;DHT22;38624;53.242;6.974;2023-02-03T13:20:40;11.80;99.90
52731;DHT22;38624;53.242;6.974;2023-02-03T13:23:06;11.70;99.90
52731;DHT22;38624;53.242;6.974;2023-02-03T13:25:50;11.50;99.90
52731;DHT22;38624;53.242;6.974;2023-02-03T13:33:21;11.00;99.90
52731;DHT22;38624;53.242;6.974;2023-02-03T13:41:38;10.80;99.90
52731;DHT22;38624;53.242;6.974;2023-02-03T13:44:09;10.70;99.90
52731;DHT22;38624;53.242;6.974;2023-02-03T13:46:38;10.80;99.90
52731;DHT22;38624;53.242;6.974;2023-02-03T13:49:04;10.60;99.90
52731;DHT22;38624;53.242;6.974;2023-02-03T13:51:32;10.80;99.90
52731;DHT22;38624;53.242;6.974;2023-02-03T13:54:06;10.60;99.90
52731;DHT22;38624;53.242;6.974;2023-02-03T13:56:32;10.50;99.90
52731;DHT22;38624;53.242;6.974;2023-02-03T13:58:59;10.40;99.90
52731;DHT22;38624;53.242;6.974;2023-02-03T14:01:26;10.30;99.90
52731;DHT22;38624;53.242;6.974;2023-02-03T14:03:55;10.40;99.90
52731;DHT22;38624;53.242;6.974;2023-02-03T14:09:21;10.50;99.90
52731;DHT22;38624;53.242;6.974;2023-02-03T14:11:50;10.40;99.90
52731;DHT22;38624;53.242;6.974;2023-02-03T14:16:45;10.10;99.90
52731;DHT22;38624;53.242;6.974;2023-02-03T14:19:25;10.00;99.90
52731;DHT22;38624;53.242;6.974;2023-02-03T14:22:07;10.10;99.90
52731;DHT22;38624;53.242;6.974;2023-02-03T14:26:59;10.20;99.90
52731;DHT22;38624;53.242;6.974;2023-02-03T14:29:27;10.30;99.90
52731;DHT22;38624;53.242;6.974;2023-02-03T14:37:21;10.00;99.90
52731;DHT22;38624;53.242;6.974;2023-02-03T14:45:27;9.60;99.90
52731;DHT22;38624;53.242;6.974;2023-02-03T14:53:22;9.60;99.90
52731;DHT22;38624;53.242;6.974;2023-02-03T14:55:58;9.70;99.90
52731;DHT22;38624;53.242;6.974;2023-02-03T14:58:27;9.80;99.90
52731;DHT22;38624;53.242;6.974;2023-02-03T15:00:54;9.60;99.90
52731;DHT22;38624;53.242;6.974;2023-02-03T15:03:21;9.50;99.90
52731;DHT22;38624;53.242;6.974;2023-02-03T15:05:50;9.40;99.90
52731;DHT22;38624;53.242;6.974;2023-02-03T15:13:45;9.30;99.90
52731;DHT22;38624;53.242;6.974;2023-02-03T15:16:13;9.30;99.90
52731;DHT22;38624;53.242;6.974;2023-02-03T15:18:40;9.30;99.90
52731;DHT22;38624;53.242;6.974;2023-02-03T15:21:12;9.20;99.90
52731;DHT22;38624;53.242;6.974;2023-02-03T15:23:40;9.20;99.90
52731;DHT22;38624;53.242;6.974;2023-02-03T15:28:58;9.00;99.90
52731;DHT22;38624;53.242;6.974;2023-02-03T15:33:49;8.90;99.90
52731;DHT22;38624;53.242;6.974;2023-02-03T15:36:20;8.90;99.90
52731;DHT22;38624;53.242;6.974;2023-02-03T15:38:52;8.90;99.90
52731;DHT22;38624;53.242;6.974;2023-02-03T15:41:23;8.90;99.90
52731;DHT22;38624;53.242;6.974;2023-02-03T15:43:50;8.80;99.90
52731;DHT22;38624;53.242;6.974;2023-02-03T15:46:25;8.80;99.90
52731;DHT22;38624;53.242;6.974;2023-02-03T15:49:02;8.80;99.90
52731;DHT22;38624;53.242;6.974;2023-02-03T15:51:30;8.60;99.90
52731;DHT22;38624;53.242;6.974;2023-02-03T15:53:58;8.60;99.90
52731;DHT22;38624;53.242;6.974;2023-02-03T15:58:54;8.40;99.90
52731;DHT22;38624;53.242;6.974;2023-02-03T16:01:23;8.50;99.90
52731;DHT22;38624;53.242;6.974;2023-02-03T16:03:54;8.40;99.90
52731;DHT22;38624;53.242;6.974;2023-02-03T16:06:25;8.40;99.90
52731;DHT22;38624;53.242;6.974;2023-02-03T16:08:52;8.30;99.90
52731;DHT22;38624;53.242;6.974;2023-02-03T16:11:22;8.20;99.90
52731;DHT22;38624;53.242;6.974;2023-02-03T16:13:48;8.30;99.90
52731;DHT22;38624;53.242;6.974;2023-02-03T16:16:16;8.30;99.90
52731;DHT22;38624;53.242;6.974;2023-02-03T16:18:55;8.10;99.90
52731;DHT22;38624;53.242;6.974;2023-02-03T16:21:32;8.10;99.90
52731;DHT22;38624;53.242;6.974;2023-02-03T16:23:59;8.10;99.90
52731;DHT22;38624;53.242;6.974;2023-02-03T16:26:26;8.10;99.90
52731;DHT22;38624;53.242;6.974;2023-02-03T16:29:10;8.00;99.90
52731;DHT22;38624;53.242;6.974;2023-02-03T16:31:55;8.10;99.90
52731;DHT22;38624;53.242;6.974;2023-02-03T16:34:39;8.00;99.90
52731;DHT22;38624;53.242;6.974;2023-02-03T16:40:08;8.00;99.90
52731;DHT22;38624;53.242;6.974;2023-02-03T16:42:52;8.00;99.90
52731;DHT22;38624;53.242;6.974;2023-02-03T16:45:36;8.00;99.90
52731;DHT22;38624;53.242;6.974;2023-02-03T16:48:20;7.80;99.90
52731;DHT22;38624;53.242;6.974;2023-02-03T16:51:06;7.80;99.90
52731;DHT22;38624;53.242;6.974;2023-02-03T16:53:35;7.80;99.90
52731;DHT22;38624;53.242;6.974;2023-02-03T16:56:01;7.70;99.90
52731;DHT22;38624;53.242;6.974;2023-02-03T16:58:28;7.90;99.90
52731;DHT22;38624;53.242;6.974;2023-02-03T17:00:54;8.00;99.90
52731;DHT22;38624;53.242;6.974;2023-02-03T17:03:22;7.70;99.90
52731;DHT22;38624;53.242;6.974;2023-02-03T17:05:49;7.70;99.90
52731;DHT22;38624;53.242;6.974;2023-02-03T17:08:15;7.70;99.90
52731;DHT22;38624;53.242;6.974;2023-02-03T17:10:41;7.90;99.90
52731;DHT22;38624;53.242;6.974;2023-02-03T17:13:07;7.70;99.90
52731;DHT22;38624;53.242;6.974;2023-02-03T17:15:33;7.70;99.90
52731;DHT22;38624;53.242;6.974;2023-02-03T17:17:59;7.70;99.90
52731;DHT22;38624;53.242;6.974;2023-02-03T17:20:25;7.80;99.90
52731;DHT22;38624;53.242;6.974;2023-02-03T17:22:51;7.90;99.90
52731;DHT22;38624;53.242;6.974;2023-02-03T17:25:19;7.80;99.90
52731;DHT22;38624;53.242;6.974;2023-02-03T17:27:45;7.80;99.90
52731;DHT22;38624;53.242;6.974;2023-02-03T17:30:11;7.90;99.90
52731;DHT22;38624;53.242;6.974;2023-02-03T17:32:37;8.10;99.90
52731;DHT22;38624;53.242;6.974;2023-02-03T17:35:02;8.00;99.90
52731;DHT22;38624;53.242;6.974;2023-02-03T17:37:31;8.00;99.90
52731;DHT22;38624;53.242;6.974;2023-02-03T17:39:56;8.20;99.90
52731;DHT22;38624;53.242;6.974;2023-02-03T17:42:22;8.00;99.90
52731;DHT22;38624;53.242;6.974;2023-02-03T17:44:48;8.00;99.90
52731;DHT22;38624;53.242;6.974;2023-02-03T17:47:13;8.00;99.90
52731;DHT22;38624;53.242;6.974;2023-02-03T17:49:39;8.00;99.90
52731;DHT22;38624;53.242;6.974;2023-02-03T17:52:04;8.10;99.90
52731;DHT22;38624;53.242;6.974;2023-02-03T17:54:30;8.10;99.90
52731;DHT22;38624;53.242;6.974;2023-02-03T17:56:56;8.00;99.90
52731;DHT22;38624;53.242;6.974;2023-02-03T17:59:21;8.00;99.90
52731;DHT22;38624;53.242;6.974;2023-02-03T18:01:47;8.00;99.90
52731;DHT22;38624;53.242;6.974;2023-02-03T18:04:12;8.10;99.90
52731;DHT22;38624;53.242;6.974;2023-02-03T18:06:38;8.00;99.90
52731;DHT22;38624;53.242;6.974;2023-02-03T18:09:04;7.90;99.90
52731;DHT22;38624;53.242;6.974;2023-02-03T18:11:31;7.80;99.90